createdAt,value
2023-05-20T00:00:07.911Z,22.55
2023-05-20T00:02:54.746Z,25.00
2023-05-20T00:05:21.926Z,26.10
2023-05-20T00:07:48.688Z,22.88
2023-05-20T00:10:15.816Z,26.42
2023-05-20T00:12:42.569Z,21.90
2023-05-20T00:15:10.035Z,24.90
2023-05-20T00:17:36.888Z,21.52
2023-05-20T00:20:05.549Z,22.15
2023-05-20T00:22:32.354Z,22.17
2023-05-20T00:24:59.536Z,28.52
2023-05-20T00:27:26.316Z,23.92
2023-05-20T00:29:53.572Z,21.88
2023-05-20T00:32:20.403Z,23.20
2023-05-20T00:34:57.335Z,22.13
2023-05-20T00:37:24.426Z,23.27
2023-05-20T00:39:51.496Z,20.48
2023-05-20T00:42:28.114Z,22.58
2023-05-20T00:44:55.647Z,21.23
2023-05-20T00:47:33.407Z,21.02
2023-05-20T00:50:00.537Z,22.10
2023-05-20T00:52:27.826Z,21.67
2023-05-20T00:54:54.872Z,24.40
2023-05-20T00:57:21.716Z,23.35
2023-05-20T00:59:49.023Z,21.05
2023-05-20T01:02:15.846Z,21.90
2023-05-20T01:04:47.155Z,21.83
2023-05-20T01:07:15.453Z,21.05
2023-05-20T01:09:42.609Z,24.58
2023-05-20T01:12:17.346Z,23.25
2023-05-20T01:14:48.717Z,21.00
2023-05-20T01:17:17.828Z,23.65
2023-05-20T01:19:45.571Z,22.77
2023-05-20T01:22:13.689Z,22.48
2023-05-20T01:24:45.140Z,22.17
2023-05-20T01:27:13.500Z,19.98
2023-05-20T01:29:41.026Z,22.25
2023-05-20T01:32:10.723Z,22.60
2023-05-20T01:34:37.763Z,22.90
2023-05-20T01:37:05.624Z,21.90
2023-05-20T01:39:34.235Z,23.27
2023-05-20T01:42:01.003Z,28.48
2023-05-20T01:44:28.365Z,24.48
2023-05-20T01:46:55.143Z,22.70
2023-05-20T01:49:22.282Z,23.80
2023-05-20T01:51:49.010Z,24.85
2023-05-20T01:54:16.066Z,23.67
2023-05-20T01:56:42.850Z,22.38
2023-05-20T01:59:09.976Z,26.70
2023-05-20T02:01:36.724Z,22.95
2023-05-20T02:04:03.860Z,24.83
2023-05-20T02:06:30.623Z,21.25
2023-05-20T02:08:57.846Z,23.58
2023-05-20T02:11:24.594Z,23.58
2023-05-20T02:13:51.758Z,20.98
2023-05-20T02:16:18.613Z,22.00
2023-05-20T02:18:45.710Z,23.65
2023-05-20T02:21:12.454Z,22.27
2023-05-20T02:23:39.657Z,20.77
2023-05-20T02:26:06.463Z,21.60
2023-05-20T02:28:33.646Z,20.13
2023-05-20T02:31:00.459Z,22.48
2023-05-20T02:33:29.168Z,20.02
2023-05-20T02:35:56.082Z,24.88
2023-05-20T02:38:23.137Z,22.10
2023-05-20T02:40:49.877Z,22.27
2023-05-20T02:43:16.912Z,22.85
2023-05-20T02:45:43.980Z,25.77
2023-05-20T02:48:11.340Z,23.00
2023-05-20T02:50:41.059Z,22.67
2023-05-20T02:53:08.233Z,23.08
2023-05-20T02:55:36.083Z,23.45
2023-05-20T02:58:03.936Z,23.23
2023-05-20T03:00:31.527Z,23.33
2023-05-20T03:03:01.295Z,23.98
2023-05-20T03:05:28.121Z,28.02
2023-05-20T03:07:55.505Z,22.08
2023-05-20T03:10:22.359Z,23.48
2023-05-20T03:12:49.437Z,23.83
2023-05-20T03:15:16.571Z,24.95
2023-05-20T03:17:43.668Z,25.90
2023-05-20T03:20:12.399Z,22.08
2023-05-20T03:22:39.526Z,22.10
2023-05-20T03:25:06.489Z,22.77
2023-05-20T03:27:34.546Z,22.30
2023-05-20T03:30:01.706Z,22.45
2023-05-20T03:32:28.882Z,21.23
2023-05-20T03:34:58.150Z,24.20
2023-05-20T03:37:25.362Z,22.10
2023-05-20T03:39:52.190Z,23.55
2023-05-20T03:42:19.258Z,22.42
2023-05-20T03:44:46.058Z,23.55
2023-05-20T03:47:13.113Z,21.42
2023-05-20T03:49:41.188Z,24.55
2023-05-20T03:52:08.301Z,24.02
2023-05-20T03:54:36.261Z,21.98
2023-05-20T03:57:03.494Z,23.67
2023-05-20T03:59:30.233Z,20.45
2023-05-20T04:01:57.374Z,20.55
2023-05-20T04:04:24.262Z,22.85
2023-05-20T04:06:51.548Z,23.00
2023-05-20T04:09:18.277Z,22.27
2023-05-20T04:11:45.471Z,24.52
2023-05-20T04:14:12.195Z,22.98
2023-05-20T04:16:39.496Z,23.83
2023-05-20T04:19:06.325Z,22.90
2023-05-20T04:21:33.432Z,23.10
2023-05-20T04:24:00.242Z,22.70
2023-05-20T04:26:27.373Z,23.27
2023-05-20T04:28:54.076Z,23.35
2023-05-20T04:31:27.005Z,21.63
2023-05-20T04:33:54.606Z,25.27
2023-05-20T04:36:22.341Z,23.80
2023-05-20T04:38:49.727Z,22.13
2023-05-20T04:41:16.775Z,22.75
2023-05-20T04:43:44.066Z,23.33
2023-05-20T04:46:11.141Z,22.08
2023-05-20T04:48:38.003Z,24.35
2023-05-20T04:51:05.065Z,22.50
2023-05-20T04:53:31.868Z,21.40
2023-05-20T04:55:58.954Z,19.90
2023-05-20T04:58:25.890Z,22.85
2023-05-20T05:00:53.013Z,21.08
2023-05-20T05:03:19.801Z,20.95
2023-05-20T05:05:46.954Z,19.23
2023-05-20T05:08:13.722Z,21.38
2023-05-20T05:10:41.011Z,21.65
2023-05-20T05:13:07.786Z,18.05
2023-05-20T05:15:35.098Z,22.25
2023-05-20T05:18:02.131Z,17.20
2023-05-20T05:20:29.251Z,17.40
2023-05-20T05:22:56.141Z,17.25
2023-05-20T05:25:23.240Z,17.55
2023-05-20T05:27:50.432Z,16.55
2023-05-20T05:30:17.625Z,16.15
2023-05-20T05:32:44.541Z,14.82
2023-05-20T05:35:11.725Z,14.20
2023-05-20T05:37:38.510Z,15.23
2023-05-20T05:40:07.011Z,14.93
2023-05-20T05:42:33.756Z,15.70
2023-05-20T05:45:00.884Z,13.07
2023-05-20T05:47:32.387Z,14.07
2023-05-20T05:50:00.140Z,14.85
2023-05-20T05:52:27.342Z,14.82
2023-05-20T05:54:54.697Z,16.17
2023-05-20T05:57:21.527Z,15.20
2023-05-20T05:59:48.625Z,13.68
2023-05-20T06:02:15.435Z,13.93
2023-05-20T06:04:42.725Z,13.00
2023-05-20T06:07:09.557Z,14.27
2023-05-20T06:09:36.646Z,12.90
2023-05-20T06:12:03.781Z,11.48
2023-05-20T06:14:31.945Z,11.70
2023-05-20T06:16:58.812Z,12.07
2023-05-20T06:19:26.139Z,11.85
2023-05-20T06:21:52.893Z,13.70
2023-05-20T06:24:22.400Z,12.63
2023-05-20T06:26:51.211Z,12.02
2023-05-20T06:29:18.227Z,12.63
2023-05-20T06:31:45.031Z,13.00
2023-05-20T06:34:12.109Z,14.52
2023-05-20T06:36:38.821Z,15.10
2023-05-20T06:39:11.402Z,13.45
2023-05-20T06:41:41.284Z,12.85
2023-05-20T06:44:08.343Z,15.30
2023-05-20T06:46:35.154Z,12.63
2023-05-20T06:49:02.281Z,10.50
2023-05-20T06:51:29.121Z,11.10
2023-05-20T06:53:56.297Z,12.10
2023-05-20T06:56:23.153Z,10.77
2023-05-20T06:58:50.204Z,10.25
2023-05-20T07:01:18.379Z,11.30
2023-05-20T07:03:45.883Z,9.20
2023-05-20T07:06:12.719Z,10.95
2023-05-20T07:08:39.820Z,9.85
2023-05-20T07:11:06.559Z,9.55
2023-05-20T07:13:33.613Z,9.25
2023-05-20T07:16:00.406Z,9.00
2023-05-20T07:18:28.482Z,10.95
2023-05-20T07:20:56.899Z,10.30
2023-05-20T07:23:24.306Z,9.60
2023-05-20T07:25:51.723Z,9.77
2023-05-20T07:28:20.875Z,9.40
2023-05-20T07:30:50.217Z,11.60
2023-05-20T07:33:17.797Z,10.57
2023-05-20T07:35:45.062Z,9.32
2023-05-20T07:38:12.729Z,9.73
2023-05-20T07:40:40.747Z,10.48
2023-05-20T07:43:08.706Z,9.35
2023-05-20T07:45:37.279Z,8.93
2023-05-20T07:48:05.183Z,12.18
2023-05-20T07:50:32.080Z,11.98
2023-05-20T07:52:59.317Z,9.25
2023-05-20T07:55:26.172Z,10.25
2023-05-20T07:57:53.354Z,10.00
2023-05-20T08:00:20.764Z,10.85
2023-05-20T08:02:47.922Z,10.38
2023-05-20T08:05:14.898Z,10.63
2023-05-20T08:07:41.937Z,9.38
2023-05-20T08:10:09.408Z,10.38
2023-05-20T08:12:36.532Z,11.52
2023-05-20T08:15:03.901Z,9.20
2023-05-20T08:17:31.083Z,9.73
2023-05-20T08:19:57.886Z,10.50
2023-05-20T08:22:24.923Z,9.27
2023-05-20T08:24:51.774Z,8.70
2023-05-20T08:27:18.808Z,9.63
2023-05-20T08:29:45.656Z,10.63
2023-05-20T08:32:12.784Z,10.85
2023-05-20T08:34:40.074Z,11.45
2023-05-20T08:37:07.111Z,10.13
2023-05-20T08:39:34.148Z,9.55
2023-05-20T08:42:01.831Z,10.50
2023-05-20T08:44:28.605Z,10.15
2023-05-20T08:46:56.062Z,9.95
2023-05-20T08:49:22.864Z,9.27
2023-05-20T08:51:49.983Z,9.43
2023-05-20T08:54:16.959Z,9.07
2023-05-20T08:56:44.088Z,9.23
2023-05-20T08:59:10.876Z,9.43
2023-05-20T09:01:43.218Z,9.45
2023-05-20T09:04:10.126Z,12.27
2023-05-20T09:06:44.854Z,10.50
2023-05-20T09:09:15.214Z,9.93
2023-05-20T09:11:42.553Z,9.45
2023-05-20T09:14:09.316Z,10.68
2023-05-20T09:16:36.389Z,10.43
2023-05-20T09:19:06.398Z,10.40
2023-05-20T09:21:34.957Z,9.80
2023-05-20T09:24:02.279Z,9.50
2023-05-20T09:26:30.068Z,13.30
2023-05-20T09:28:58.003Z,10.05
2023-05-20T09:31:31.578Z,11.27
2023-05-20T09:33:58.354Z,10.32
2023-05-20T09:36:25.835Z,9.95
2023-05-20T09:38:55.701Z,11.20
2023-05-20T09:41:23.669Z,10.98
2023-05-20T09:43:50.490Z,10.35
2023-05-20T09:46:17.655Z,11.75
2023-05-20T09:48:44.485Z,10.15
2023-05-20T09:51:12.064Z,9.90
2023-05-20T09:53:38.828Z,10.13
2023-05-20T09:56:06.279Z,10.15
2023-05-20T09:58:34.295Z,10.55
2023-05-20T10:01:01.923Z,9.68
2023-05-20T10:03:28.892Z,10.10
2023-05-20T10:06:20.272Z,9.90
2023-05-20T10:08:52.022Z,9.82
2023-05-20T10:11:45.300Z,9.93
2023-05-20T10:14:33.936Z,9.50
2023-05-20T10:17:11.212Z,9.77
2023-05-20T10:19:38.018Z,10.35
2023-05-20T10:22:06.766Z,9.52
2023-05-20T10:24:35.219Z,12.43
2023-05-20T10:27:04.615Z,10.63
2023-05-20T10:29:43.279Z,11.02
2023-05-20T10:32:10.531Z,10.93
2023-05-20T10:34:48.089Z,10.93
2023-05-20T10:37:26.425Z,10.48
2023-05-20T10:39:53.307Z,10.02
2023-05-20T10:42:28.287Z,10.13
2023-05-20T10:44:55.110Z,12.70
2023-05-20T10:47:26.054Z,15.30
2023-05-20T10:49:53.314Z,16.33
2023-05-20T10:52:20.731Z,14.93
2023-05-20T10:54:50.943Z,14.23
2023-05-20T10:57:18.853Z,15.02
2023-05-20T10:59:47.505Z,12.98
2023-05-20T11:02:15.954Z,13.73
2023-05-20T11:04:46.781Z,14.07
2023-05-20T11:07:13.888Z,12.90
2023-05-20T11:09:49.191Z,15.10
2023-05-20T11:12:17.384Z,12.27
2023-05-20T11:14:44.195Z,11.90
2023-05-20T11:17:11.362Z,12.70
2023-05-20T11:19:38.404Z,13.00
2023-05-20T11:22:08.105Z,13.27
2023-05-20T11:24:34.869Z,14.10
2023-05-20T11:27:02.231Z,11.85
2023-05-20T11:29:37.978Z,11.93
2023-05-20T11:32:05.550Z,12.70
2023-05-20T11:34:36.465Z,12.55
2023-05-20T11:37:07.791Z,12.52
2023-05-20T11:39:34.677Z,14.75
2023-05-20T11:42:01.826Z,12.98
2023-05-20T11:44:28.606Z,12.50
2023-05-20T11:47:00.257Z,12.32
2023-05-20T11:49:27.042Z,13.10
2023-05-20T11:51:54.099Z,13.13
2023-05-20T11:54:22.511Z,13.10
2023-05-20T11:56:49.606Z,14.25
2023-05-20T11:59:16.391Z,13.00
2023-05-20T12:01:43.715Z,13.18
2023-05-20T12:04:10.799Z,14.13
2023-05-20T12:06:38.263Z,13.05
2023-05-20T12:09:07.175Z,13.45
2023-05-20T12:11:35.790Z,12.13
2023-05-20T12:14:04.037Z,11.70
2023-05-20T12:16:31.833Z,12.60
2023-05-20T12:18:58.725Z,12.38
2023-05-20T12:21:26.011Z,15.55
2023-05-20T12:23:57.577Z,12.00
2023-05-20T12:26:25.960Z,13.23
2023-05-20T12:28:53.069Z,12.35
2023-05-20T12:31:20.363Z,13.02
2023-05-20T12:33:47.235Z,12.63
2023-05-20T12:36:14.715Z,11.80
2023-05-20T12:38:41.473Z,12.98
2023-05-20T12:41:08.548Z,11.93
2023-05-20T12:43:38.397Z,11.63
2023-05-20T12:46:05.902Z,10.98
2023-05-20T12:48:32.838Z,11.60
2023-05-20T12:51:00.128Z,11.20
2023-05-20T12:53:26.854Z,11.25
2023-05-20T12:55:54.063Z,10.70
2023-05-20T12:58:20.864Z,11.50
2023-05-20T13:00:47.954Z,11.48
2023-05-20T13:03:15.023Z,10.70
2023-05-20T13:05:42.470Z,10.75
2023-05-20T13:08:10.295Z,11.07
2023-05-20T13:10:38.097Z,11.68
2023-05-20T13:13:05.149Z,11.27
2023-05-20T13:15:33.490Z,11.93
2023-05-20T13:18:01.558Z,11.60
2023-05-20T13:20:29.954Z,10.45
2023-05-20T13:22:56.726Z,10.98
2023-05-20T13:25:23.852Z,11.68
2023-05-20T13:27:50.974Z,12.45
2023-05-20T13:30:18.101Z,12.43
2023-05-20T13:32:45.081Z,12.88
2023-05-20T13:35:13.206Z,15.95
2023-05-20T13:37:40.029Z,11.60
2023-05-20T13:40:07.790Z,12.45
2023-05-20T13:42:34.621Z,13.75
2023-05-20T13:45:01.791Z,17.27
2023-05-20T13:47:28.741Z,12.30
2023-05-20T13:49:55.988Z,12.63
2023-05-20T13:52:22.848Z,13.57
2023-05-20T13:54:49.887Z,13.68
2023-05-20T13:57:16.762Z,12.20
2023-05-20T13:59:43.988Z,14.57
2023-05-20T14:02:11.200Z,12.82
2023-05-20T14:04:40.029Z,12.45
2023-05-20T14:07:09.620Z,12.68
2023-05-20T14:09:37.151Z,10.80
2023-05-20T14:12:04.781Z,15.98
2023-05-20T14:14:31.964Z,13.98
2023-05-20T14:16:58.727Z,13.48
2023-05-20T14:19:27.092Z,13.93
2023-05-20T14:21:54.010Z,13.25
2023-05-20T14:24:23.026Z,13.15
2023-05-20T14:26:50.632Z,13.80
2023-05-20T14:29:17.828Z,14.63
2023-05-20T14:31:44.759Z,14.73
2023-05-20T14:34:11.891Z,12.38
2023-05-20T14:36:38.921Z,13.27
2023-05-20T14:39:06.008Z,16.63
2023-05-20T14:41:32.784Z,13.68
2023-05-20T14:43:59.931Z,14.35
2023-05-20T14:46:26.774Z,12.35
2023-05-20T14:48:53.847Z,12.90
2023-05-20T14:51:20.732Z,12.73
2023-05-20T14:53:47.751Z,13.23
2023-05-20T14:56:14.529Z,12.95
2023-05-20T14:58:42.051Z,12.98
2023-05-20T15:01:09.229Z,13.15
2023-05-20T15:03:36.701Z,14.32
2023-05-20T15:06:03.818Z,13.25
2023-05-20T15:08:31.461Z,13.38
2023-05-20T15:10:58.331Z,12.18
2023-05-20T15:13:25.407Z,11.10
2023-05-20T15:15:52.981Z,12.88
2023-05-20T15:18:20.129Z,12.02
2023-05-20T15:20:46.876Z,12.05
2023-05-20T15:23:14.055Z,12.45
2023-05-20T15:25:40.822Z,12.43
2023-05-20T15:28:07.931Z,11.63
2023-05-20T15:30:34.923Z,12.52
2023-05-20T15:33:03.055Z,13.07
2023-05-20T15:35:29.939Z,11.70
2023-05-20T15:37:57.064Z,11.75
2023-05-20T15:40:23.860Z,11.65
2023-05-20T15:42:51.521Z,13.00
2023-05-20T15:45:18.394Z,11.45
2023-05-20T15:47:45.545Z,11.80
2023-05-20T15:50:12.584Z,11.65
2023-05-20T15:52:39.918Z,12.35
2023-05-20T15:55:07.492Z,12.73
2023-05-20T15:57:34.634Z,11.45
2023-05-20T16:00:01.602Z,12.18
2023-05-20T16:02:29.028Z,12.27
2023-05-20T16:04:56.159Z,13.45
2023-05-20T16:07:23.280Z,11.27
2023-05-20T16:09:50.066Z,12.48
2023-05-20T16:12:17.274Z,11.38
2023-05-20T16:14:44.794Z,11.45
2023-05-20T16:17:12.285Z,11.32
2023-05-20T16:19:39.252Z,11.38
2023-05-20T16:22:06.336Z,11.60
2023-05-20T16:24:33.165Z,11.93
2023-05-20T16:27:00.448Z,11.35
2023-05-20T16:29:27.370Z,11.70
2023-05-20T16:31:54.461Z,11.65
2023-05-20T16:34:21.345Z,12.00
2023-05-20T16:36:48.411Z,11.57
2023-05-20T16:39:15.514Z,11.65
2023-05-20T16:41:42.686Z,10.80
2023-05-20T16:44:09.702Z,11.88
2023-05-20T16:46:36.880Z,12.20
2023-05-20T16:49:03.624Z,11.20
2023-05-20T16:51:31.150Z,10.50
2023-05-20T16:53:57.890Z,11.18
2023-05-20T16:56:24.957Z,11.05
2023-05-20T16:58:53.132Z,11.27
2023-05-20T17:01:21.331Z,11.95
2023-05-20T17:03:48.115Z,10.77
2023-05-20T17:06:15.172Z,11.43
2023-05-20T17:08:41.957Z,14.30
2023-05-20T17:11:09.040Z,14.70
2023-05-20T17:13:36.216Z,13.48
2023-05-20T17:16:03.321Z,12.32
2023-05-20T17:18:30.100Z,14.07
2023-05-20T17:20:57.170Z,11.27
2023-05-20T17:23:23.995Z,11.85
2023-05-20T17:25:51.300Z,11.48
2023-05-20T17:28:18.089Z,11.35
2023-05-20T17:30:45.288Z,12.82
2023-05-20T17:33:12.331Z,10.57
2023-05-20T17:35:39.502Z,11.38
2023-05-20T17:38:06.277Z,12.23
2023-05-20T17:40:33.667Z,11.65
2023-05-20T17:43:00.686Z,10.95
2023-05-20T17:45:27.724Z,11.02
2023-05-20T17:47:54.679Z,10.65
2023-05-20T17:50:21.901Z,12.30
2023-05-20T17:52:48.730Z,11.50
2023-05-20T17:55:18.339Z,11.80
2023-05-20T17:57:45.064Z,11.20
2023-05-20T18:00:13.098Z,11.95
2023-05-20T18:02:40.040Z,12.57
2023-05-20T18:05:07.728Z,12.15
2023-05-20T18:07:36.115Z,11.93
2023-05-20T18:10:05.074Z,12.18
2023-05-20T18:12:31.875Z,13.27
2023-05-20T18:14:58.992Z,10.93
2023-05-20T18:17:25.896Z,10.63
2023-05-20T18:19:53.053Z,11.25
2023-05-20T18:22:19.880Z,11.60
2023-05-20T18:24:47.107Z,11.02
2023-05-20T18:27:13.846Z,11.05
2023-05-20T18:29:40.927Z,11.70
2023-05-20T18:32:08.221Z,10.88
2023-05-20T18:34:35.330Z,11.40
2023-05-20T18:37:02.194Z,10.90
2023-05-20T18:39:29.310Z,10.82
2023-05-20T18:41:56.116Z,10.00
2023-05-20T18:44:23.245Z,11.70
2023-05-20T18:46:50.037Z,10.82
2023-05-20T18:49:17.111Z,11.02
2023-05-20T18:51:43.856Z,10.93
2023-05-20T18:54:11.018Z,11.27
2023-05-20T18:56:37.870Z,10.88
2023-05-20T18:59:04.928Z,12.07
2023-05-20T19:01:34.000Z,11.57
2023-05-20T19:04:01.480Z,11.27
2023-05-20T19:06:28.287Z,11.70
2023-05-20T19:08:55.418Z,12.00
2023-05-20T19:11:22.220Z,10.75
2023-05-20T19:13:49.326Z,10.43
2023-05-20T19:16:16.555Z,10.27
2023-05-20T19:18:43.821Z,11.30
2023-05-20T19:21:10.742Z,10.82
2023-05-20T19:23:37.836Z,10.32
2023-05-20T19:26:04.758Z,11.63
2023-05-20T19:28:31.853Z,10.13
2023-05-20T19:30:58.715Z,10.80
2023-05-20T19:33:26.009Z,10.85
2023-05-20T19:35:52.778Z,13.07
2023-05-20T19:38:19.880Z,10.75
2023-05-20T19:40:47.867Z,10.38
2023-05-20T19:43:14.990Z,9.95
2023-05-20T19:45:41.846Z,10.82
2023-05-20T19:48:09.103Z,10.23
2023-05-20T19:50:37.972Z,11.52
2023-05-20T19:53:07.387Z,10.63
2023-05-20T19:55:35.608Z,11.25
2023-05-20T19:58:03.064Z,12.27
2023-05-20T20:00:29.914Z,11.18
2023-05-20T20:02:57.742Z,11.77
2023-05-20T20:05:25.949Z,11.82
2023-05-20T20:07:52.898Z,11.10
2023-05-20T20:10:20.049Z,12.40
2023-05-20T20:12:46.880Z,11.40
2023-05-20T20:15:14.372Z,10.63
2023-05-20T20:17:45.420Z,11.55
2023-05-20T20:20:15.699Z,10.75
2023-05-20T20:22:42.434Z,11.90
2023-05-20T20:25:09.623Z,11.20
2023-05-20T20:27:36.346Z,10.98
2023-05-20T20:30:03.686Z,10.85
2023-05-20T20:32:30.541Z,10.60
2023-05-20T20:34:58.282Z,11.32
2023-05-20T20:37:26.881Z,11.75
2023-05-20T20:39:55.267Z,11.15
2023-05-20T20:42:24.677Z,11.40
2023-05-20T20:44:52.653Z,11.20
2023-05-20T20:47:19.464Z,11.73
2023-05-20T20:49:46.547Z,11.13
2023-05-20T20:52:13.399Z,10.48
2023-05-20T20:54:42.889Z,10.70
2023-05-20T20:57:10.198Z,11.93
2023-05-20T20:59:37.244Z,12.73
2023-05-20T21:02:04.559Z,12.15
2023-05-20T21:04:32.894Z,12.30
2023-05-20T21:07:01.777Z,11.38
2023-05-20T21:09:29.237Z,11.98
2023-05-20T21:11:57.244Z,11.40
2023-05-20T21:14:25.350Z,10.75
2023-05-20T21:16:52.181Z,12.90
2023-05-20T21:19:19.272Z,11.02
2023-05-20T21:21:46.050Z,12.35
2023-05-20T21:24:13.212Z,10.82
2023-05-20T21:26:40.038Z,10.95
2023-05-20T21:29:07.498Z,12.55
2023-05-20T21:31:34.376Z,12.55
2023-05-20T21:34:01.585Z,11.77
2023-05-20T21:36:28.337Z,11.32
2023-05-20T21:38:55.559Z,11.60
2023-05-20T21:41:23.493Z,12.00
2023-05-20T21:43:50.841Z,12.50
2023-05-20T21:46:17.629Z,14.57
2023-05-20T21:48:44.740Z,13.38
2023-05-20T21:51:11.500Z,11.70
2023-05-20T21:53:38.545Z,16.65
2023-05-20T21:56:05.524Z,12.00
2023-05-20T21:58:32.640Z,11.32
2023-05-20T22:00:59.412Z,11.18
2023-05-20T22:03:26.566Z,12.48
2023-05-20T22:05:53.367Z,11.77
2023-05-20T22:08:20.445Z,11.00
2023-05-20T22:10:48.407Z,10.48
2023-05-20T22:13:15.514Z,12.07
2023-05-20T22:15:42.265Z,11.38
2023-05-20T22:18:09.639Z,12.68
2023-05-20T22:20:38.614Z,10.13
2023-05-20T22:23:05.867Z,12.18
2023-05-20T22:25:32.710Z,12.07
2023-05-20T22:27:59.866Z,10.57
2023-05-20T22:30:26.602Z,10.52
2023-05-20T22:32:53.729Z,10.68
2023-05-20T22:35:20.721Z,10.32
2023-05-20T22:37:48.273Z,14.90
2023-05-20T22:40:15.502Z,11.15
2023-05-20T22:42:42.593Z,10.55
2023-05-20T22:45:09.879Z,10.52
2023-05-20T22:47:37.017Z,10.30
2023-05-20T22:50:04.097Z,11.02
2023-05-20T22:52:31.509Z,10.93
2023-05-20T22:54:58.600Z,11.52
2023-05-20T22:57:25.759Z,11.07
2023-05-20T22:59:53.943Z,12.13
2023-05-20T23:02:23.213Z,11.48
2023-05-20T23:04:50.533Z,11.02
2023-05-20T23:07:19.365Z,10.63
2023-05-20T23:09:49.053Z,9.60
2023-05-20T23:12:16.291Z,14.27
2023-05-20T23:14:43.009Z,10.45
2023-05-20T23:17:10.139Z,10.38
2023-05-20T23:19:37.010Z,11.90
2023-05-20T23:22:04.419Z,11.65
2023-05-20T23:24:31.139Z,11.30
2023-05-20T23:26:59.349Z,10.68
2023-05-20T23:29:26.960Z,10.50
2023-05-20T23:31:54.020Z,10.15
2023-05-20T23:34:21.444Z,11.05
2023-05-20T23:36:49.922Z,13.40
2023-05-20T23:39:18.317Z,11.35
2023-05-20T23:41:45.616Z,10.50
2023-05-20T23:44:12.398Z,10.70
2023-05-20T23:46:39.688Z,9.68
2023-05-20T23:49:06.808Z,10.07
2023-05-20T23:51:35.492Z,9.88
2023-05-20T23:54:02.234Z,10.18
2023-05-20T23:56:29.346Z,10.43
2023-05-20T23:58:57.778Z,9.93
